Time;durP1;ratioP1;P1;durP2;ratioP2;P2;SDS_P1;SDS_P2;PMS_P1;PMS_P2;Temp;Humidity;BMP_temperature;BMP_pressure;BME280_temperature;BME280_humidity;BME280_pressure;Samples;Min_cycle;Max_cycle;Signal;HPM_P1;HPM_P2
2023/01/20 00:01:17;;;;;;;9.10;8.70;;;;;;;;;;5100881;28;20129;-69
2023/01/20 00:03:44;;;;;;;9.30;8.90;;;;;;;;;;5096369;28;20128;-70
2023/01/20 00:06:10;;;;;;;9.80;9.32;;;;;;;;;;5081401;28;20030;-70
2023/01/20 00:08:35;;;;;;;9.20;8.80;;;;;;;;;;5101571;28;20471;-69
2023/01/20 00:11:05;;;;;;;9.38;8.98;;;;;;;;;;5104965;28;20031;-69
2023/01/20 00:13:31;;;;;;;9.02;8.63;;;;;;;;;;5097242;28;20081;-68
2023/01/20 00:15:56;;;;;;;9.20;8.80;;;;;;;;;;5101274;28;20051;-70
2023/01/20 00:18:22;;;;;;;9.43;9.02;;;;;;;;;;5102309;28;20011;-69
2023/01/20 00:20:48;;;;;;;9.10;8.70;;;;;;;;;;5106176;28;20026;-70
2023/01/20 00:23:13;;;;;;;9.40;9.00;;;;;;;;;;5084346;28;20024;-69
2023/01/20 00:25:38;;;;;;;8.95;8.55;;;;;;;;;;5104322;28;20417;-69
2023/01/20 00:28:04;;;;;;;9.50;9.10;;;;;;;;;;5103351;28;20020;-69
2023/01/20 00:30:29;;;;;;;9.10;8.70;;;;;;;;;;5106128;28;20024;-69
2023/01/20 00:32:54;;;;;;;9.05;8.65;;;;;;;;;;5103339;28;20039;-68
2023/01/20 00:35:20;;;;;;;9.10;8.70;;;;;;;;;;5104756;28;20031;-68
2023/01/20 00:37:45;;;;;;;9.13;8.73;;;;;;;;;;5107802;28;20383;-69
2023/01/20 00:40:11;;;;;;;9.10;8.70;;;;;;;;;;5103108;28;20482;-70
2023/01/20 00:42:36;;;;;;;8.80;8.40;;;;;;;;;;5106525;28;20012;-69
2023/01/20 00:45:01;;;;;;;9.15;8.75;;;;;;;;;;5100034;28;20100;-68
2023/01/20 00:47:27;;;;;;;9.23;8.82;;;;;;;;;;5103220;28;20023;-69
2023/01/20 00:49:52;;;;;;;9.02;8.63;;;;;;;;;;5104434;28;20023;-70
2023/01/20 00:52:17;;;;;;;8.68;8.27;;;;;;;;;;5104433;28;20024;-69
2023/01/20 00:54:43;;;;;;;8.85;8.45;;;;;;;;;;5101021;28;20487;-70
2023/01/20 00:57:08;;;;;;;9.20;8.80;;;;;;;;;;5107036;28;20051;-70
2023/01/20 00:59:33;;;;;;;9.13;8.73;;;;;;;;;;5085738;28;20376;-69
2023/01/20 01:01:59;;;;;;;9.35;8.95;;;;;;;;;;5104379;28;20019;-70
2023/01/20 01:04:24;;;;;;;9.15;8.75;;;;;;;;;;5105632;28;20019;-69
2023/01/20 01:06:49;;;;;;;8.95;8.55;;;;;;;;;;5076081;28;20024;-67
2023/01/20 01:09:15;;;;;;;9.15;8.75;;;;;;;;;;5100324;28;20047;-69
2023/01/20 01:11:40;;;;;;;9.10;8.70;;;;;;;;;;5107757;28;20027;-69
2023/01/20 01:14:05;;;;;;;9.32;8.93;;;;;;;;;;5081680;28;20024;-69
2023/01/20 01:16:30;;;;;;;9.07;8.68;;;;;;;;;;5103993;28;20016;-69
2023/01/20 01:18:56;;;;;;;9.55;9.13;;;;;;;;;;5104781;28;20027;-69
2023/01/20 01:21:21;;;;;;;9.10;8.70;;;;;;;;;;5108987;28;20063;-68
2023/01/20 01:23:46;;;;;;;9.40;9.00;;;;;;;;;;5104725;28;20462;-69
2023/01/20 01:26:12;;;;;;;9.27;8.88;;;;;;;;;;5104231;28;20452;-69
2023/01/20 01:28:38;;;;;;;8.77;8.38;;;;;;;;;;5095655;28;20023;-70
2023/01/20 01:31:04;;;;;;;9.05;8.65;;;;;;;;;;5102464;28;20551;-69
2023/01/20 01:33:29;;;;;;;8.73;8.32;;;;;;;;;;5103531;28;20031;-69
2023/01/20 01:35:59;;;;;;;8.88;8.48;;;;;;;;;;5103699;28;20032;-69
2023/01/20 01:38:24;;;;;;;9.02;8.63;;;;;;;;;;5100779;28;20107;-69
2023/01/20 01:40:50;;;;;;;8.90;8.50;;;;;;;;;;5099159;28;20107;-70
2023/01/20 01:43:23;;;;;;;8.90;8.50;;;;;;;;;;5104294;28;20007;-69
2023/01/20 01:45:48;;;;;;;9.00;8.60;;;;;;;;;;5095526;28;20020;-69
2023/01/20 01:48:14;;;;;;;9.10;8.70;;;;;;;;;;5081561;28;20023;-69
2023/01/20 01:50:47;;;;;;;9.15;8.75;;;;;;;;;;5096633;28;20016;-69
2023/01/20 01:53:13;;;;;;;8.87;8.47;;;;;;;;;;5100790;28;20026;-69
2023/01/20 01:55:41;;;;;;;9.18;8.77;;;;;;;;;;5103817;28;20036;-69
2023/01/20 01:58:07;;;;;;;9.00;8.60;;;;;;;;;;5082958;28;20023;-69
2023/01/20 02:00:33;;;;;;;9.40;9.00;;;;;;;;;;5103170;28;20025;-70
2023/01/20 02:02:58;;;;;;;9.15;8.75;;;;;;;;;;5102527;28;20073;-68
2023/01/20 02:05:24;;;;;;;9.40;9.00;;;;;;;;;;5102813;28;20070;-69
2023/01/20 02:07:50;;;;;;;9.07;8.68;;;;;;;;;;5100434;28;20066;-69
2023/01/20 02:10:15;;;;;;;9.02;8.63;;;;;;;;;;5102131;28;20478;-70
2023/01/20 02:12:43;;;;;;;9.02;8.63;;;;;;;;;;5100439;28;20047;-70
2023/01/20 02:15:08;;;;;;;9.23;8.82;;;;;;;;;;5081977;28;20069;-69
2023/01/20 02:17:40;;;;;;;9.10;8.70;;;;;;;;;;5105690;28;20019;-69
2023/01/20 02:20:23;;;;;;;9.30;8.90;;;;;;;;;;5104518;28;20031;-69
2023/01/20 02:23:06;;;;;;;8.90;8.50;;;;;;;;;;5105141;28;20012;-68
2023/01/20 02:25:37;;;;;;;9.07;8.68;;;;;;;;;;5101365;28;20020;-69
2023/01/20 02:28:22;;;;;;;9.15;8.75;;;;;;;;;;5102131;28;20426;-69
2023/01/20 02:31:00;;;;;;;9.35;8.95;;;;;;;;;;5100269;28;20016;-68
2023/01/20 02:33:41;;;;;;;8.90;8.50;;;;;;;;;;5083034;28;20080;-69
2023/01/20 02:36:32;;;;;;;9.30;8.90;;;;;;;;;;5100837;28;20078;-69
2023/01/20 02:39:04;;;;;;;9.43;9.02;;;;;;;;;;5077206;28;20123;-70
2023/01/20 02:41:50;;;;;;;9.23;8.82;;;;;;;;;;5104265;28;20430;-70
2023/01/20 02:44:23;;;;;;;9.20;8.80;;;;;;;;;;5081306;28;20024;-70
2023/01/20 02:47:00;;;;;;;9.02;8.63;;;;;;;;;;5102326;28;20536;-69
2023/01/20 02:49:38;;;;;;;9.00;8.60;;;;;;;;;;5097750;28;20032;-70
2023/01/20 02:52:14;;;;;;;9.43;9.02;;;;;;;;;;5085791;28;20018;-69
2023/01/20 02:54:43;;;;;;;8.82;8.43;;;;;;;;;;5101529;28;20020;-69
2023/01/20 02:57:11;;;;;;;9.32;8.93;;;;;;;;;;5100528;28;20036;-69
2023/01/20 02:59:40;;;;;;;9.10;8.70;;;;;;;;;;5100761;28;20012;-69
2023/01/20 03:02:08;;;;;;;9.35;8.95;;;;;;;;;;5105987;28;20430;-69
2023/01/20 03:04:42;;;;;;;9.10;8.70;;;;;;;;;;5105631;28;20022;-69
2023/01/20 03:07:09;;;;;;;9.10;8.70;;;;;;;;;;5103095;28;20103;-70
2023/01/20 03:09:38;;;;;;;9.00;8.60;;;;;;;;;;5103687;28;20487;-70
2023/01/20 03:12:12;;;;;;;9.00;8.60;;;;;;;;;;5085316;28;20024;-69
2023/01/20 03:14:37;;;;;;;9.00;8.60;;;;;;;;;;5097364;28;20015;-69
2023/01/20 03:17:03;;;;;;;9.20;8.80;;;;;;;;;;5095039;28;20149;-69
2023/01/20 03:19:28;;;;;;;8.73;8.32;;;;;;;;;;5097999;28;20043;-70
2023/01/20 03:21:53;;;;;;;9.00;8.60;;;;;;;;;;5087314;28;20028;-69
2023/01/20 03:24:19;;;;;;;9.00;8.60;;;;;;;;;;5101469;28;20020;-69
2023/01/20 03:26:45;;;;;;;8.82;8.43;;;;;;;;;;5099885;28;20035;-69
2023/01/20 03:29:11;;;;;;;9.13;8.73;;;;;;;;;;5099055;28;20039;-70
2023/01/20 03:31:36;;;;;;;8.88;8.48;;;;;;;;;;5100855;28;20387;-69
2023/01/20 03:34:05;;;;;;;9.27;8.88;;;;;;;;;;5097912;28;20020;-69
2023/01/20 03:36:31;;;;;;;9.20;8.80;;;;;;;;;;5100493;28;20073;-69
2023/01/20 03:38:56;;;;;;;9.40;9.00;;;;;;;;;;5098425;28;20027;-68
2023/01/20 03:41:34;;;;;;;9.30;8.90;;;;;;;;;;5104472;28;20073;-69
2023/01/20 03:44:08;;;;;;;8.90;8.50;;;;;;;;;;5100801;28;20016;-69
2023/01/20 03:46:33;;;;;;;;;;;;;;;;;;5104699;28;20050;-69
2023/01/20 03:49:23;;;;;;;8.90;8.50;;;;;;;;;;5098538;28;19947;-69
2023/01/20 03:52:02;;;;;;;8.82;8.43;;;;;;;;;;5085912;28;20467;-69
2023/01/20 03:54:32;;;;;;;9.00;8.60;;;;;;;;;;5086986;28;20020;-69
2023/01/20 03:57:03;;;;;;;8.90;8.50;;;;;;;;;;5100519;28;20039;-69
2023/01/20 03:59:32;;;;;;;9.10;8.70;;;;;;;;;;5099628;28;20126;-69
2023/01/20 04:02:01;;;;;;;8.75;8.35;;;;;;;;;;5092957;28;20099;-69
2023/01/20 04:04:28;;;;;;;9.05;8.65;;;;;;;;;;5104631;28;20042;-69
2023/01/20 04:06:54;;;;;;;9.57;9.13;;;;;;;;;;5084157;28;20102;-69
2023/01/20 04:09:25;;;;;;;9.00;8.60;;;;;;;;;;5077522;28;20425;-70
2023/01/20 04:11:50;;;;;;;8.68;8.27;;;;;;;;;;5097592;28;20700;-69
2023/01/20 04:14:15;;;;;;;9.02;8.63;;;;;;;;;;5098742;28;20102;-69
2023/01/20 04:16:41;;;;;;;9.02;8.63;;;;;;;;;;5090334;28;20016;-68
2023/01/20 04:19:06;;;;;;;9.77;9.27;;;;;;;;;;5102329;28;20080;-68
2023/01/20 04:21:37;;;;;;;9.38;8.98;;;;;;;;;;5100765;28;20024;-69
2023/01/20 04:24:06;;;;;;;9.13;8.73;;;;;;;;;;5098295;28;20023;-68
2023/01/20 04:26:31;;;;;;;9.18;8.77;;;;;;;;;;5100522;28;20424;-69
2023/01/20 04:28:56;;;;;;;8.90;8.50;;;;;;;;;;5105990;28;20107;-69
2023/01/20 04:31:22;;;;;;;8.93;8.52;;;;;;;;;;5104993;28;20024;-68
2023/01/20 04:33:47;;;;;;;9.43;9.02;;;;;;;;;;5100549;28;20023;-69
2023/01/20 04:36:12;;;;;;;9.20;8.80;;;;;;;;;;5081827;28;20059;-69
2023/01/20 04:38:38;;;;;;;9.40;9.00;;;;;;;;;;5082413;28;20107;-69
2023/01/20 04:41:03;;;;;;;9.20;8.80;;;;;;;;;;5099332;28;20051;-69
2023/01/20 04:43:28;;;;;;;8.95;8.55;;;;;;;;;;5097538;28;20514;-70
2023/01/20 04:45:54;;;;;;;9.75;9.25;;;;;;;;;;5093313;28;20020;-70
2023/01/20 04:48:19;;;;;;;9.38;8.98;;;;;;;;;;5087442;28;20038;-70
2023/01/20 04:50:44;;;;;;;9.43;9.02;;;;;;;;;;5095470;28;20065;-69
2023/01/20 04:53:11;;;;;;;9.82;9.32;;;;;;;;;;5097644;28;20103;-69
2023/01/20 04:55:36;;;;;;;9.55;9.15;;;;;;;;;;5099971;28;20044;-69
2023/01/20 04:58:01;;;;;;;10.05;9.55;;;;;;;;;;5076458;28;20020;-71
2023/01/20 05:00:27;;;;;;;9.38;8.98;;;;;;;;;;5094098;28;20024;-70
2023/01/20 05:02:55;;;;;;;9.20;8.80;;;;;;;;;;5097030;28;20051;-69
2023/01/20 05:05:20;;;;;;;9.80;9.30;;;;;;;;;;5083576;28;20020;-67
2023/01/20 05:07:45;;;;;;;9.10;8.70;;;;;;;;;;5100643;28;20100;-68
2023/01/20 05:10:11;;;;;;;9.52;9.13;;;;;;;;;;5102585;28;20016;-67
2023/01/20 05:12:36;;;;;;;9.10;8.70;;;;;;;;;;5097592;28;20020;-68
2023/01/20 05:15:01;;;;;;;10.02;9.52;;;;;;;;;;5103859;28;20020;-67
2023/01/20 05:17:27;;;;;;;9.50;9.10;;;;;;;;;;5098181;28;20020;-67
2023/01/20 05:19:52;;;;;;;9.70;9.20;;;;;;;;;;5102197;28;20028;-68
2023/01/20 05:22:17;;;;;;;8.82;8.43;;;;;;;;;;5102639;28;20031;-67
2023/01/20 05:24:43;;;;;;;9.05;8.65;;;;;;;;;;5104755;28;20019;-67
2023/01/20 05:27:08;;;;;;;9.52;9.13;;;;;;;;;;5077647;28;20567;-66
2023/01/20 05:29:33;;;;;;;9.48;9.07;;;;;;;;;;5097659;28;20020;-69
2023/01/20 05:31:59;;;;;;;9.35;8.95;;;;;;;;;;5101034;28;20052;-69
2023/01/20 05:34:24;;;;;;;9.70;9.25;;;;;;;;;;5102151;28;20024;-69
2023/01/20 05:36:50;;;;;;;9.40;9.00;;;;;;;;;;5099725;28;20016;-69
2023/01/20 05:39:15;;;;;;;9.70;9.20;;;;;;;;;;5099464;28;20046;-70
2023/01/20 05:41:41;;;;;;;9.93;9.43;;;;;;;;;;5099129;28;20012;-69
2023/01/20 05:44:07;;;;;;;9.57;9.13;;;;;;;;;;5100507;28;20875;-70
2023/01/20 05:46:33;;;;;;;9.48;9.07;;;;;;;;;;5103675;28;20017;-69
2023/01/20 05:48:58;;;;;;;9.88;9.38;;;;;;;;;;5101322;28;20044;-68
2023/01/20 05:51:23;;;;;;;9.43;9.02;;;;;;;;;;5097606;28;20057;-64
2023/01/20 05:53:49;;;;;;;9.98;9.48;;;;;;;;;;5096967;28;20070;-64
2023/01/20 05:56:14;;;;;;;9.65;9.18;;;;;;;;;;5100461;28;20044;-64
2023/01/20 05:58:40;;;;;;;10.73;10.13;;;;;;;;;;5097665;28;20059;-65
2023/01/20 06:01:09;;;;;;;9.52;9.10;;;;;;;;;;5093033;28;20032;-64
2023/01/20 06:03:35;;;;;;;9.93;9.43;;;;;;;;;;5082908;28;20018;-65
2023/01/20 06:06:00;;;;;;;9.38;8.98;;;;;;;;;;5095585;28;20633;-66
2023/01/20 06:08:26;;;;;;;10.73;10.13;;;;;;;;;;5091411;28;20035;-69
2023/01/20 06:10:51;;;;;;;9.25;8.85;;;;;;;;;;5096033;28;20484;-65
2023/01/20 06:13:17;;;;;;;9.45;9.05;;;;;;;;;;5101098;28;20566;-65
2023/01/20 06:15:42;;;;;;;9.07;8.68;;;;;;;;;;5103418;28;20030;-65
2023/01/20 06:18:11;;;;;;;9.68;9.18;;;;;;;;;;5098600;28;20028;-65
2023/01/20 06:20:37;;;;;;;9.70;9.20;;;;;;;;;;5096394;28;20031;-65
2023/01/20 06:23:02;;;;;;;8.90;8.50;;;;;;;;;;5097360;28;20463;-64
2023/01/20 06:25:27;;;;;;;9.10;8.70;;;;;;;;;;5105861;28;20011;-64
2023/01/20 06:27:53;;;;;;;9.35;8.95;;;;;;;;;;5100497;28;20391;-65
2023/01/20 06:30:18;;;;;;;9.73;9.25;;;;;;;;;;5102264;28;20123;-65
2023/01/20 06:32:45;;;;;;;9.07;8.68;;;;;;;;;;5102789;28;20098;-65
2023/01/20 06:35:10;;;;;;;9.30;8.90;;;;;;;;;;5099162;28;20047;-65
2023/01/20 06:37:35;;;;;;;9.50;9.10;;;;;;;;;;5102687;28;20097;-64
2023/01/20 06:40:01;;;;;;;9.20;8.80;;;;;;;;;;5101512;28;20072;-65
2023/01/20 06:42:26;;;;;;;9.57;9.13;;;;;;;;;;5099969;28;20022;-65
2023/01/20 06:44:51;;;;;;;9.27;8.88;;;;;;;;;;5098743;28;20016;-65
2023/01/20 06:47:17;;;;;;;9.57;9.07;;;;;;;;;;5098028;28;20091;-65
2023/01/20 06:49:42;;;;;;;9.93;9.43;;;;;;;;;;5097854;28;20019;-66
2023/01/20 06:52:08;;;;;;;10.07;9.57;;;;;;;;;;5096123;28;20091;-66
2023/01/20 06:54:33;;;;;;;9.05;8.65;;;;;;;;;;5102271;28;20012;-65
2023/01/20 06:56:59;;;;;;;9.10;8.70;;;;;;;;;;5084385;28;20055;-65
2023/01/20 06:59:24;;;;;;;9.18;8.77;;;;;;;;;;5098873;28;20016;-65
2023/01/20 07:01:49;;;;;;;9.45;9.05;;;;;;;;;;5097289;28;20015;-66
2023/01/20 07:04:15;;;;;;;9.52;9.07;;;;;;;;;;5097313;28;20026;-65
2023/01/20 07:06:41;;;;;;;9.30;8.90;;;;;;;;;;5097099;28;20138;-65
2023/01/20 07:09:08;;;;;;;9.27;8.88;;;;;;;;;;5102840;28;20417;-65
2023/01/20 07:11:36;;;;;;;9.23;8.82;;;;;;;;;;5078400;28;20047;-65
2023/01/20 07:14:02;;;;;;;9.95;9.45;;;;;;;;;;5106310;28;20026;-65
2023/01/20 07:16:28;;;;;;;10.10;9.60;;;;;;;;;;5099439;28;20015;-66
2023/01/20 07:18:54;;;;;;;9.32;8.93;;;;;;;;;;5101615;28;20111;-66
2023/01/20 07:21:20;;;;;;;9.90;9.40;;;;;;;;;;5098104;28;20027;-66
2023/01/20 07:23:45;;;;;;;9.35;8.95;;;;;;;;;;5103491;28;20027;-65
2023/01/20 07:26:15;;;;;;;10.25;9.75;;;;;;;;;;5101750;28;20479;-64
2023/01/20 07:28:40;;;;;;;9.15;8.75;;;;;;;;;;5100771;28;20518;-66
2023/01/20 07:31:10;;;;;;;9.40;9.00;;;;;;;;;;5104010;28;20027;-65
2023/01/20 07:33:36;;;;;;;9.95;9.45;;;;;;;;;;5098043;28;20392;-65
2023/01/20 07:36:02;;;;;;;11.55;10.95;;;;;;;;;;5092765;28;20023;-66
2023/01/20 07:38:28;;;;;;;9.23;8.82;;;;;;;;;;5094539;28;20024;-66
2023/01/20 07:41:00;;;;;;;9.07;8.68;;;;;;;;;;5097932;28;20052;-65
2023/01/20 07:43:26;;;;;;;9.60;9.20;;;;;;;;;;5099907;28;20015;-65
2023/01/20 07:45:55;;;;;;;11.80;11.18;;;;;;;;;;5095565;28;20088;-69
2023/01/20 07:48:20;;;;;;;9.30;8.90;;;;;;;;;;5096036;28;20012;-68
2023/01/20 07:50:45;;;;;;;10.00;9.50;;;;;;;;;;5091131;28;20103;-69
2023/01/20 07:53:11;;;;;;;9.20;8.80;;;;;;;;;;5088729;28;20099;-68
2023/01/20 07:55:36;;;;;;;9.38;8.98;;;;;;;;;;5091195;28;20074;-69
2023/01/20 07:58:01;;;;;;;9.85;9.35;;;;;;;;;;5089201;28;20047;-69
2023/01/20 08:00:27;;;;;;;9.48;9.07;;;;;;;;;;5094706;28;20024;-69
2023/01/20 08:02:52;;;;;;;9.43;9.02;;;;;;;;;;5090122;28;20036;-68
2023/01/20 08:05:18;;;;;;;9.88;9.38;;;;;;;;;;5066639;28;20029;-68
2023/01/20 08:07:43;;;;;;;9.73;9.30;;;;;;;;;;5085979;28;20028;-69
2023/01/20 08:10:09;;;;;;;9.10;8.70;;;;;;;;;;5100571;28;20391;-66
2023/01/20 08:12:34;;;;;;;9.40;9.00;;;;;;;;;;5093900;28;20108;-70
2023/01/20 08:14:59;;;;;;;9.20;8.80;;;;;;;;;;5094072;28;20047;-71
2023/01/20 08:17:25;;;;;;;9.38;8.98;;;;;;;;;;5078915;28;20062;-67
2023/01/20 08:19:50;;;;;;;9.50;9.10;;;;;;;;;;5097482;28;20145;-69
2023/01/20 08:22:15;;;;;;;9.43;9.02;;;;;;;;;;5078684;28;20054;-67
2023/01/20 08:24:41;;;;;;;9.23;8.82;;;;;;;;;;5094877;28;20516;-67
2023/01/20 08:27:06;;;;;;;10.00;9.50;;;;;;;;;;5098444;28;20087;-68
2023/01/20 08:29:32;;;;;;;9.60;9.20;;;;;;;;;;5079853;28;20510;-67
2023/01/20 08:32:01;;;;;;;9.65;9.25;;;;;;;;;;5095661;28;20024;-68
2023/01/20 08:34:27;;;;;;;10.02;9.52;;;;;;;;;;5099298;28;20102;-65
2023/01/20 08:36:53;;;;;;;9.60;9.20;;;;;;;;;;5094066;28;20047;-66
2023/01/20 08:39:19;;;;;;;9.48;9.07;;;;;;;;;;5100725;28;20024;-67
2023/01/20 08:41:44;;;;;;;9.77;9.38;;;;;;;;;;5077982;28;20115;-69
2023/01/20 08:44:10;;;;;;;10.27;9.77;;;;;;;;;;5096830;28;20021;-67
2023/01/20 08:46:36;;;;;;;9.50;9.10;;;;;;;;;;5098863;28;20031;-69
2023/01/20 08:49:05;;;;;;;9.63;9.23;;;;;;;;;;5100087;28;20016;-72
2023/01/20 08:51:30;;;;;;;9.60;9.20;;;;;;;;;;5101488;28;20076;-66
2023/01/20 08:53:56;;;;;;;9.60;9.20;;;;;;;;;;5099932;28;20032;-68
2023/01/20 08:56:22;;;;;;;9.40;9.00;;;;;;;;;;5099620;28;20139;-68
2023/01/20 08:58:47;;;;;;;9.75;9.35;;;;;;;;;;5094772;28;20100;-68
2023/01/20 09:01:14;;;;;;;9.80;9.40;;;;;;;;;;5099291;28;20020;-66
2023/01/20 09:03:39;;;;;;;9.77;9.38;;;;;;;;;;5099043;28;20028;-67
2023/01/20 09:06:05;;;;;;;9.80;9.40;;;;;;;;;;5097075;28;20069;-67
2023/01/20 09:08:31;;;;;;;10.10;9.70;;;;;;;;;;5097348;28;20039;-67
2023/01/20 09:11:12;;;;;;;10.20;9.80;;;;;;;;;;5098293;28;20019;-68
2023/01/20 09:13:38;;;;;;;10.13;9.73;;;;;;;;;;5095037;28;20012;-70
2023/01/20 09:16:03;;;;;;;9.98;9.57;;;;;;;;;;5096998;28;20096;-66
2023/01/20 09:18:30;;;;;;;10.35;9.90;;;;;;;;;;5094498;28;20027;-67
2023/01/20 09:20:56;;;;;;;10.20;9.80;;;;;;;;;;5091620;28;20364;-66
2023/01/20 09:23:21;;;;;;;10.18;9.77;;;;;;;;;;5099464;28;20016;-67
2023/01/20 09:25:46;;;;;;;10.15;9.75;;;;;;;;;;5099399;28;20103;-65
2023/01/20 09:28:13;;;;;;;10.63;10.13;;;;;;;;;;5073547;28;20069;-68
2023/01/20 09:30:38;;;;;;;10.20;9.80;;;;;;;;;;5091957;28;20425;-68
2023/01/20 09:33:03;;;;;;;10.55;10.05;;;;;;;;;;5096241;28;20028;-65
2023/01/20 09:35:29;;;;;;;10.10;9.70;;;;;;;;;;5089961;28;20059;-69
2023/01/20 09:43:54;;;;;;;10.13;9.73;;;;;;;;;;5090112;28;20260;-68
2023/01/20 09:46:32;;;;;;;10.25;9.82;;;;;;;;;;5095226;28;20017;-67
2023/01/20 09:54:35;;;;;;;10.80;10.30;;;;;;;;;;5094111;28;20089;-67
2023/01/20 09:57:01;;;;;;;10.40;9.90;;;;;;;;;;5093526;28;20068;-66
2023/01/20 09:59:29;;;;;;;10.15;9.73;;;;;;;;;;5091885;28;20011;-68
2023/01/20 10:01:56;;;;;;;11.07;10.57;;;;;;;;;;5082948;28;20036;-67
2023/01/20 10:04:25;;;;;;;10.50;10.00;;;;;;;;;;5098757;28;20020;-66
2023/01/20 10:06:56;;;;;;;10.18;9.68;;;;;;;;;;5091439;28;20564;-65
2023/01/20 10:09:36;;;;;;;12.30;11.70;;;;;;;;;;5089787;28;20047;-66
2023/01/20 10:12:08;;;;;;;10.90;10.40;;;;;;;;;;5092933;28;20024;-66
2023/01/20 10:14:36;;;;;;;10.98;10.48;;;;;;;;;;5093375;28;20049;-67
2023/01/20 10:17:20;;;;;;;10.10;9.65;;;;;;;;;;5095772;28;20052;-66
2023/01/20 10:19:45;;;;;;;10.48;9.98;;;;;;;;;;5075851;28;20100;-66
2023/01/20 10:22:15;;;;;;;10.98;10.48;;;;;;;;;;5100000;28;20733;-66
2023/01/20 10:25:06;;;;;;;11.05;10.55;;;;;;;;;;5094878;28;20488;-66
2023/01/20 10:27:34;;;;;;;10.40;9.90;;;;;;;;;;5085261;28;20093;-65
2023/01/20 10:30:08;;;;;;;9.95;9.52;;;;;;;;;;5095748;28;20016;-67
2023/01/20 10:32:35;;;;;;;10.43;9.93;;;;;;;;;;5088678;28;20017;-66
2023/01/20 10:35:14;;;;;;;10.93;10.43;;;;;;;;;;5089056;28;20028;-66
2023/01/20 10:37:39;;;;;;;9.85;9.45;;;;;;;;;;5098101;28;20068;-67
2023/01/20 10:40:12;;;;;;;11.20;10.70;;;;;;;;;;5096132;28;20023;-66
2023/01/20 10:42:38;;;;;;;10.67;10.17;;;;;;;;;;5099348;28;20019;-66
2023/01/20 10:45:05;;;;;;;11.15;10.65;;;;;;;;;;5085055;28;20031;-68
2023/01/20 10:47:33;;;;;;;10.93;10.43;;;;;;;;;;5087889;28;20019;-68
2023/01/20 10:50:01;;;;;;;10.90;10.40;;;;;;;;;;5086841;28;20107;-69
2023/01/20 10:52:29;;;;;;;10.30;9.80;;;;;;;;;;5074022;28;20514;-68
2023/01/20 10:55:14;;;;;;;10.88;10.38;;;;;;;;;;5088586;28;20047;-66
2023/01/20 10:57:39;;;;;;;10.45;9.95;;;;;;;;;;5092738;28;20039;-66
2023/01/20 11:00:06;;;;;;;10.68;10.18;;;;;;;;;;5091326;28;20537;-65
2023/01/20 11:02:36;;;;;;;10.75;10.25;;;;;;;;;;5092442;28;20467;-65
2023/01/20 11:05:02;;;;;;;10.85;10.35;;;;;;;;;;5091567;28;20364;-66
2023/01/20 11:07:28;;;;;;;10.50;10.00;;;;;;;;;;5090644;28;20054;-65
2023/01/20 11:09:54;;;;;;;10.93;10.43;;;;;;;;;;5091497;28;20076;-65
2023/01/20 11:12:22;;;;;;;10.20;9.70;;;;;;;;;;5093165;28;20027;-65
2023/01/20 11:14:47;;;;;;;10.75;10.25;;;;;;;;;;5097499;28;20026;-65
2023/01/20 11:17:17;;;;;;;10.82;10.32;;;;;;;;;;5090533;28;20016;-65
2023/01/20 11:19:55;;;;;;;10.50;10.00;;;;;;;;;;5087607;28;20020;-65
2023/01/20 11:22:32;;;;;;;11.90;11.30;;;;;;;;;;5085341;28;20031;-65
2023/01/20 11:24:58;;;;;;;10.77;10.27;;;;;;;;;;5089542;28;20098;-66
2023/01/20 11:27:25;;;;;;;10.95;10.45;;;;;;;;;;5088385;28;20508;-68
2023/01/20 11:30:06;;;;;;;11.52;10.93;;;;;;;;;;5090034;28;20438;-66
2023/01/20 11:32:33;;;;;;;10.82;10.32;;;;;;;;;;5082161;28;20012;-65
2023/01/20 11:35:00;;;;;;;10.90;10.40;;;;;;;;;;5093394;28;20068;-65
2023/01/20 11:37:33;;;;;;;10.63;10.13;;;;;;;;;;5085006;28;20110;-64
2023/01/20 11:39:59;;;;;;;10.82;10.32;;;;;;;;;;5091937;28;20498;-66
2023/01/20 11:42:29;;;;;;;10.40;9.90;;;;;;;;;;5091242;28;20097;-67
2023/01/20 11:45:00;;;;;;;10.95;10.45;;;;;;;;;;5090128;28;20102;-66
2023/01/20 11:47:29;;;;;;;10.70;10.20;;;;;;;;;;5096506;28;20026;-66
2023/01/20 11:50:15;;;;;;;11.15;10.65;;;;;;;;;;5086524;28;20040;-66
2023/01/20 11:52:42;;;;;;;9.98;9.50;;;;;;;;;;5094511;28;20032;-65
2023/01/20 11:55:07;;;;;;;10.25;9.75;;;;;;;;;;5092989;28;20110;-67
2023/01/20 11:57:33;;;;;;;10.45;9.95;;;;;;;;;;5096600;28;20115;-69
2023/01/20 11:59:58;;;;;;;10.20;9.70;;;;;;;;;;5073872;28;20046;-67
2023/01/20 12:02:24;;;;;;;11.32;10.77;;;;;;;;;;5099702;28;20377;-69
2023/01/20 12:04:55;;;;;;;10.20;9.70;;;;;;;;;;5088729;28;20029;-65
2023/01/20 12:07:28;;;;;;;10.60;10.10;;;;;;;;;;5092277;28;20020;-69
2023/01/20 12:09:57;;;;;;;9.95;9.50;;;;;;;;;;5098318;28;20065;-67
2023/01/20 12:12:29;;;;;;;10.52;10.02;;;;;;;;;;5094616;28;20037;-66
2023/01/20 12:15:13;;;;;;;10.60;10.10;;;;;;;;;;5086935;28;20467;-67
2023/01/20 12:17:50;;;;;;;10.25;9.75;;;;;;;;;;5080618;28;20115;-67
2023/01/20 12:20:30;;;;;;;10.88;10.38;;;;;;;;;;5099211;28;20073;-67
2023/01/20 12:23:13;;;;;;;9.75;9.35;;;;;;;;;;5094241;28;20042;-66
2023/01/20 12:25:54;;;;;;;11.02;10.52;;;;;;;;;;5086770;28;20410;-65
2023/01/20 12:28:22;;;;;;;10.50;10.00;;;;;;;;;;5093630;28;20480;-66
2023/01/20 12:30:57;;;;;;;10.65;10.15;;;;;;;;;;5094097;28;20032;-67
2023/01/20 12:33:22;;;;;;;10.50;10.00;;;;;;;;;;5092799;28;20089;-68
2023/01/20 12:36:02;;;;;;;10.70;10.20;;;;;;;;;;5092015;28;20464;-67
2023/01/20 12:38:29;;;;;;;10.10;9.63;;;;;;;;;;5093074;28;20016;-65
2023/01/20 12:40:55;;;;;;;10.55;10.05;;;;;;;;;;5088565;28;20495;-65
2023/01/20 12:43:26;;;;;;;10.20;9.70;;;;;;;;;;5087838;28;20028;-66
2023/01/20 12:45:58;;;;;;;9.77;9.38;;;;;;;;;;5089778;28;20024;-67
2023/01/20 12:48:44;;;;;;;10.20;9.70;;;;;;;;;;5100346;28;20475;-65
2023/01/20 12:51:15;;;;;;;10.63;10.13;;;;;;;;;;5072735;28;20032;-68
2023/01/20 12:53:55;;;;;;;10.13;9.63;;;;;;;;;;5088690;28;20024;-70
2023/01/20 12:56:36;;;;;;;10.27;9.77;;;;;;;;;;5088218;28;20055;-68
2023/01/20 12:59:15;;;;;;;10.20;9.70;;;;;;;;;;5095179;28;20016;-66
2023/01/20 13:01:41;;;;;;;10.63;10.13;;;;;;;;;;5095255;28;20015;-65
2023/01/20 13:04:24;;;;;;;10.75;10.25;;;;;;;;;;5086981;28;20475;-66
2023/01/20 13:06:55;;;;;;;10.27;9.77;;;;;;;;;;5086716;28;20016;-68
2023/01/20 13:09:27;;;;;;;10.13;9.63;;;;;;;;;;5093063;28;20047;-65
2023/01/20 13:12:01;;;;;;;10.90;10.40;;;;;;;;;;5097201;28;20498;-65
2023/01/20 13:14:37;;;;;;;10.35;9.85;;;;;;;;;;5094994;28;20032;-66
2023/01/20 13:17:11;;;;;;;10.13;9.63;;;;;;;;;;5082471;28;20020;-65
2023/01/20 13:19:37;;;;;;;10.20;9.70;;;;;;;;;;5091544;28;20065;-66
2023/01/20 13:22:19;;;;;;;10.63;10.13;;;;;;;;;;5091387;28;20028;-65
2023/01/20 13:24:51;;;;;;;9.55;9.15;;;;;;;;;;5090301;28;20016;-67
2023/01/20 13:27:21;;;;;;;10.05;9.55;;;;;;;;;;5096693;28;20534;-67
2023/01/20 13:29:49;;;;;;;10.23;9.73;;;;;;;;;;5093018;28;20513;-66
2023/01/20 13:32:30;;;;;;;10.38;9.88;;;;;;;;;;5092431;28;20023;-67
2023/01/20 13:34:55;;;;;;;10.35;9.85;;;;;;;;;;5095571;28;20028;-67
2023/01/20 13:37:25;;;;;;;10.32;9.82;;;;;;;;;;5092493;28;20020;-68
2023/01/20 13:39:53;;;;;;;11.55;10.95;;;;;;;;;;5088632;28;20461;-67
2023/01/20 13:42:36;;;;;;;10.10;9.60;;;;;;;;;;5090442;28;20043;-66
2023/01/20 13:45:11;;;;;;;10.02;9.57;;;;;;;;;;5079495;28;20044;-67
2023/01/20 13:47:48;;;;;;;10.10;9.60;;;;;;;;;;5095527;28;20027;-67
2023/01/20 13:50:34;;;;;;;10.50;10.00;;;;;;;;;;5093039;28;20065;-69
2023/01/20 13:52:59;;;;;;;10.20;9.70;;;;;;;;;;5098379;28;20520;-69
2023/01/20 13:55:39;;;;;;;10.20;9.70;;;;;;;;;;5097558;28;20068;-66
2023/01/20 13:58:18;;;;;;;10.00;9.57;;;;;;;;;;5092675;28;20028;-67
2023/01/20 14:00:44;;;;;;;10.32;9.82;;;;;;;;;;5095836;28;20379;-65
2023/01/20 14:03:20;;;;;;;11.57;10.98;;;;;;;;;;5094441;28;20102;-66
2023/01/20 14:05:50;;;;;;;9.88;9.48;;;;;;;;;;5095827;28;20028;-64
2023/01/20 14:08:15;;;;;;;9.50;9.10;;;;;;;;;;5096557;28;20028;-63
2023/01/20 14:10:41;;;;;;;10.73;10.23;;;;;;;;;;5089399;28;20031;-66
2023/01/20 14:13:10;;;;;;;10.38;9.88;;;;;;;;;;5088579;28;20543;-69
2023/01/20 14:15:36;;;;;;;10.23;9.73;;;;;;;;;;5096347;28;20032;-66
2023/01/20 14:18:02;;;;;;;10.38;9.88;;;;;;;;;;5091317;28;20069;-67
2023/01/20 14:20:28;;;;;;;11.10;10.57;;;;;;;;;;5093098;28;20115;-64
2023/01/20 14:22:53;;;;;;;11.07;10.57;;;;;;;;;;5089129;28;20331;-66
2023/01/20 14:25:20;;;;;;;11.75;11.15;;;;;;;;;;5094059;28;20016;-65
2023/01/20 14:27:46;;;;;;;10.15;9.65;;;;;;;;;;5088777;28;20024;-66
2023/01/20 14:30:22;;;;;;;10.98;10.48;;;;;;;;;;5098789;28;20037;-66
2023/01/20 14:32:47;;;;;;;10.52;10.02;;;;;;;;;;5095722;28;20127;-68
2023/01/20 14:35:14;;;;;;;10.50;10.00;;;;;;;;;;5093554;28;20099;-66
2023/01/20 14:37:40;;;;;;;10.68;10.18;;;;;;;;;;5088257;28;20086;-67
2023/01/20 14:40:08;;;;;;;11.45;10.85;;;;;;;;;;5091442;28;20507;-66
2023/01/20 14:42:35;;;;;;;10.00;9.55;;;;;;;;;;5091916;28;20020;-65
2023/01/20 14:45:00;;;;;;;10.40;9.90;;;;;;;;;;5096615;28;20554;-65
2023/01/20 14:47:25;;;;;;;10.10;9.60;;;;;;;;;;5099040;28;20111;-65
2023/01/20 14:49:52;;;;;;;10.65;10.15;;;;;;;;;;5092420;28;20395;-65
2023/01/20 14:52:23;;;;;;;10.95;10.45;;;;;;;;;;5097280;28;20020;-66
2023/01/20 14:54:48;;;;;;;10.05;9.55;;;;;;;;;;5094543;28;20028;-69